CheckWX is a tool to help pilots better visualize weather data.  It is not intended as a substitute for an official pre-flight weather briefing.

23:23:33 UTC

GVAC TAF
Amílcar Cabral International Airport
Espargos, Cape Verde
TAF GVAC 161700Z 1618/1724 05014KT 9999 SCT014 TEMPO 1618/1703 BKN014

Nov-16@
18:00 UTC

Nov-16 @ 18:00 UTC

Nov-18@
00:00 UTC

Nov-18 @ 00:00 UTC

TAF GVAC 161700Z 1618/1724 05014KT 9999 SCT014
Wind
  • 050° at 14 KTS
Cloud Levels
  • Scattered at 1,400' AGL

Nov-16@
18:00 UTC

Nov-16 @ 18:00 UTC

Nov-17@
03:00 UTC

Nov-17 @ 03:00 UTC

TEMPO 1618/1703 BKN014

Temporary

Temporary Changes expected for less than half the time period

Cloud Levels
  • Broken at 1,400' AGL